sensor_id;sensor_type;location;lat;lon;timestamp;P1;durP1;ratioP1;P2;durP2;ratioP2
61336;SDS011;47212;41.326;2.104;2023-11-19T00:04:38;6.63;;;4.00;;
61336;SDS011;47212;41.326;2.104;2023-11-19T00:15:16;7.50;;;4.20;;
61336;SDS011;47212;41.326;2.104;2023-11-19T00:20:26;32.17;;;21.25;;
61336;SDS011;47212;41.326;2.104;2023-11-19T00:25:37;12.52;;;8.80;;
61336;SDS011;47212;41.326;2.104;2023-11-19T00:30:46;10.43;;;6.43;;
61336;SDS011;47212;41.326;2.104;2023-11-19T00:35:54;8.55;;;4.90;;
61336;SDS011;47212;41.326;2.104;2023-11-19T00:41:03;9.05;;;4.72;;
61336;SDS011;47212;41.326;2.104;2023-11-19T00:46:17;7.30;;;3.97;;
61336;SDS011;47212;41.326;2.104;2023-11-19T00:51:26;10.02;;;5.18;;
61336;SDS011;47212;41.326;2.104;2023-11-19T00:56:43;11.18;;;5.60;;
61336;SDS011;47212;41.326;2.104;2023-11-19T01:01:50;12.40;;;6.82;;
61336;SDS011;47212;41.326;2.104;2023-11-19T01:06:58;14.88;;;7.32;;
61336;SDS011;47212;41.326;2.104;2023-11-19T01:12:02;11.57;;;6.05;;
61336;SDS011;47212;41.326;2.104;2023-11-19T01:17:08;12.57;;;6.55;;
61336;SDS011;47212;41.326;2.104;2023-11-19T01:22:14;9.63;;;4.97;;
61336;SDS011;47212;41.326;2.104;2023-11-19T01:27:20;7.68;;;4.75;;
61336;SDS011;47212;41.326;2.104;2023-11-19T01:32:25;8.27;;;4.30;;
61336;SDS011;47212;41.326;2.104;2023-11-19T01:37:41;8.70;;;4.32;;
61336;SDS011;47212;41.326;2.104;2023-11-19T01:42:45;7.18;;;3.75;;
61336;SDS011;47212;41.326;2.104;2023-11-19T01:47:50;5.75;;;3.70;;
61336;SDS011;47212;41.326;2.104;2023-11-19T01:52:59;7.70;;;3.60;;
61336;SDS011;47212;41.326;2.104;2023-11-19T01:58:08;9.02;;;4.28;;
61336;SDS011;47212;41.326;2.104;2023-11-19T02:05:12;5.80;;;3.55;;
61336;SDS011;47212;41.326;2.104;2023-11-19T02:10:16;7.57;;;3.53;;
61336;SDS011;47212;41.326;2.104;2023-11-19T02:15:27;6.00;;;3.72;;
61336;SDS011;47212;41.326;2.104;2023-11-19T02:20:44;8.23;;;4.07;;
61336;SDS011;47212;41.326;2.104;2023-11-19T02:31:23;6.63;;;3.35;;
61336;SDS011;47212;41.326;2.104;2023-11-19T02:36:33;5.93;;;3.70;;
61336;SDS011;47212;41.326;2.104;2023-11-19T02:41:54;6.15;;;3.35;;
61336;SDS011;47212;41.326;2.104;2023-11-19T02:47:06;7.15;;;3.40;;
61336;SDS011;47212;41.326;2.104;2023-11-19T02:52:12;8.82;;;3.90;;
61336;SDS011;47212;41.326;2.104;2023-11-19T02:57:17;6.40;;;4.10;;
61336;SDS011;47212;41.326;2.104;2023-11-19T03:02:25;7.07;;;4.30;;
61336;SDS011;47212;41.326;2.104;2023-11-19T03:07:41;6.95;;;3.90;;
61336;SDS011;47212;41.326;2.104;2023-11-19T03:12:49;8.45;;;4.30;;
61336;SDS011;47212;41.326;2.104;2023-11-19T03:17:56;7.63;;;3.97;;
61336;SDS011;47212;41.326;2.104;2023-11-19T03:23:01;6.53;;;3.83;;
61336;SDS011;47212;41.326;2.104;2023-11-19T03:28:04;7.45;;;3.88;;
61336;SDS011;47212;41.326;2.104;2023-11-19T03:33:17;6.45;;;3.45;;
61336;SDS011;47212;41.326;2.104;2023-11-19T03:38:25;6.43;;;3.60;;
61336;SDS011;47212;41.326;2.104;2023-11-19T03:43:31;6.28;;;3.80;;
61336;SDS011;47212;41.326;2.104;2023-11-19T03:48:39;5.70;;;3.53;;
61336;SDS011;47212;41.326;2.104;2023-11-19T03:53:44;6.07;;;3.78;;
61336;SDS011;47212;41.326;2.104;2023-11-19T03:58:59;6.45;;;3.65;;
61336;SDS011;47212;41.326;2.104;2023-11-19T04:04:05;8.57;;;3.55;;
61336;SDS011;47212;41.326;2.104;2023-11-19T04:09:09;7.55;;;3.30;;
61336;SDS011;47212;41.326;2.104;2023-11-19T04:14:19;8.32;;;3.70;;
61336;SDS011;47212;41.326;2.104;2023-11-19T04:19:22;6.95;;;3.33;;
61336;SDS011;47212;41.326;2.104;2023-11-19T04:24:28;6.65;;;3.50;;
61336;SDS011;47212;41.326;2.104;2023-11-19T04:29:41;7.65;;;3.63;;
61336;SDS011;47212;41.326;2.104;2023-11-19T04:34:53;4.93;;;3.08;;
61336;SDS011;47212;41.326;2.104;2023-11-19T04:39:58;5.35;;;3.17;;
61336;SDS011;47212;41.326;2.104;2023-11-19T04:45:07;5.03;;;3.25;;
61336;SDS011;47212;41.326;2.104;2023-11-19T04:50:19;6.82;;;3.22;;
61336;SDS011;47212;41.326;2.104;2023-11-19T04:55:25;6.50;;;3.67;;
61336;SDS011;47212;41.326;2.104;2023-11-19T05:06:06;7.85;;;3.83;;
61336;SDS011;47212;41.326;2.104;2023-11-19T05:11:11;6.03;;;3.50;;
61336;SDS011;47212;41.326;2.104;2023-11-19T05:16:23;4.95;;;3.35;;
61336;SDS011;47212;41.326;2.104;2023-11-19T05:23:17;5.47;;;3.20;;
61336;SDS011;47212;41.326;2.104;2023-11-19T05:30:17;6.65;;;3.80;;
61336;SDS011;47212;41.326;2.104;2023-11-19T05:37:15;6.35;;;3.40;;
61336;SDS011;47212;41.326;2.104;2023-11-19T05:42:18;5.28;;;3.30;;
61336;SDS011;47212;41.326;2.104;2023-11-19T05:47:24;8.90;;;3.80;;
61336;SDS011;47212;41.326;2.104;2023-11-19T05:52:42;7.30;;;3.67;;
61336;SDS011;47212;41.326;2.104;2023-11-19T05:57:47;5.63;;;3.38;;
61336;SDS011;47212;41.326;2.104;2023-11-19T06:02:52;8.35;;;3.78;;
61336;SDS011;47212;41.326;2.104;2023-11-19T06:08:03;7.53;;;4.20;;
61336;SDS011;47212;41.326;2.104;2023-11-19T06:13:07;6.88;;;3.33;;
61336;SDS011;47212;41.326;2.104;2023-11-19T06:18:12;8.23;;;3.65;;
61336;SDS011;47212;41.326;2.104;2023-11-19T06:23:20;5.85;;;3.45;;
61336;SDS011;47212;41.326;2.104;2023-11-19T06:28:26;5.82;;;3.72;;
61336;SDS011;47212;41.326;2.104;2023-11-19T06:33:31;7.22;;;3.85;;
61336;SDS011;47212;41.326;2.104;2023-11-19T06:43:44;6.00;;;3.50;;
61336;SDS011;47212;41.326;2.104;2023-11-19T06:48:47;8.23;;;3.60;;
61336;SDS011;47212;41.326;2.104;2023-11-19T06:53:52;7.03;;;3.47;;
61336;SDS011;47212;41.326;2.104;2023-11-19T06:58:55;7.10;;;3.50;;
61336;SDS011;47212;41.326;2.104;2023-11-19T07:03:57;8.10;;;4.47;;
61336;SDS011;47212;41.326;2.104;2023-11-19T07:09:00;6.22;;;4.03;;
61336;SDS011;47212;41.326;2.104;2023-11-19T07:14:15;7.95;;;3.70;;
61336;SDS011;47212;41.326;2.104;2023-11-19T07:19:18;8.05;;;4.60;;
61336;SDS011;47212;41.326;2.104;2023-11-19T07:24:22;11.95;;;7.55;;
61336;SDS011;47212;41.326;2.104;2023-11-19T07:29:34;7.88;;;5.05;;
61336;SDS011;47212;41.326;2.104;2023-11-19T07:34:43;9.13;;;4.57;;
61336;SDS011;47212;41.326;2.104;2023-11-19T07:39:51;6.80;;;3.70;;
61336;SDS011;47212;41.326;2.104;2023-11-19T07:45:00;9.32;;;5.10;;
61336;SDS011;47212;41.326;2.104;2023-11-19T07:50:05;9.35;;;4.97;;
61336;SDS011;47212;41.326;2.104;2023-11-19T07:55:07;10.65;;;5.47;;
61336;SDS011;47212;41.326;2.104;2023-11-19T08:00:13;9.70;;;5.60;;
61336;SDS011;47212;41.326;2.104;2023-11-19T08:05:18;10.38;;;4.72;;
61336;SDS011;47212;41.326;2.104;2023-11-19T08:10:23;6.70;;;4.10;;
61336;SDS011;47212;41.326;2.104;2023-11-19T08:15:27;8.40;;;4.90;;
61336;SDS011;47212;41.326;2.104;2023-11-19T08:20:33;13.73;;;5.05;;
61336;SDS011;47212;41.326;2.104;2023-11-19T08:25:39;6.45;;;4.60;;
61336;SDS011;47212;41.326;2.104;2023-11-19T08:30:44;8.98;;;4.80;;
61336;SDS011;47212;41.326;2.104;2023-11-19T08:35:48;9.38;;;5.00;;
61336;SDS011;47212;41.326;2.104;2023-11-19T08:41:07;9.45;;;5.15;;
61336;SDS011;47212;41.326;2.104;2023-11-19T08:46:14;8.55;;;5.80;;
61336;SDS011;47212;41.326;2.104;2023-11-19T08:51:17;11.05;;;5.65;;
61336;SDS011;47212;41.326;2.104;2023-11-19T08:56:23;8.05;;;5.30;;
61336;SDS011;47212;41.326;2.104;2023-11-19T09:01:26;9.77;;;4.80;;
61336;SDS011;47212;41.326;2.104;2023-11-19T09:06:29;10.35;;;5.22;;
61336;SDS011;47212;41.326;2.104;2023-11-19T09:11:36;9.32;;;4.85;;
61336;SDS011;47212;41.326;2.104;2023-11-19T09:16:43;9.18;;;4.82;;
61336;SDS011;47212;41.326;2.104;2023-11-19T09:21:50;11.50;;;5.32;;
61336;SDS011;47212;41.326;2.104;2023-11-19T09:26:54;10.93;;;5.03;;
61336;SDS011;47212;41.326;2.104;2023-11-19T09:32:00;14.10;;;6.10;;
61336;SDS011;47212;41.326;2.104;2023-11-19T09:37:06;9.98;;;6.30;;
61336;SDS011;47212;41.326;2.104;2023-11-19T09:42:13;13.63;;;6.45;;
61336;SDS011;47212;41.326;2.104;2023-11-19T09:47:19;18.27;;;10.35;;
61336;SDS011;47212;41.326;2.104;2023-11-19T09:52:26;16.38;;;6.57;;
61336;SDS011;47212;41.326;2.104;2023-11-19T09:57:32;12.60;;;5.75;;
61336;SDS011;47212;41.326;2.104;2023-11-19T10:02:36;11.50;;;7.13;;
61336;SDS011;47212;41.326;2.104;2023-11-19T10:07:39;9.63;;;7.32;;
61336;SDS011;47212;41.326;2.104;2023-11-19T10:12:45;12.00;;;8.63;;
61336;SDS011;47212;41.326;2.104;2023-11-19T10:17:54;12.00;;;7.93;;
61336;SDS011;47212;41.326;2.104;2023-11-19T10:22:59;12.23;;;8.73;;
61336;SDS011;47212;41.326;2.104;2023-11-19T10:28:03;15.18;;;11.07;;
61336;SDS011;47212;41.326;2.104;2023-11-19T10:33:08;13.35;;;9.52;;
61336;SDS011;47212;41.326;2.104;2023-11-19T10:38:18;12.23;;;8.33;;
61336;SDS011;47212;41.326;2.104;2023-11-19T10:43:22;9.98;;;8.05;;
61336;SDS011;47212;41.326;2.104;2023-11-19T10:48:29;13.65;;;7.80;;
61336;SDS011;47212;41.326;2.104;2023-11-19T10:53:36;8.40;;;6.45;;
61336;SDS011;47212;41.326;2.104;2023-11-19T10:58:44;8.55;;;5.93;;
61336;SDS011;47212;41.326;2.104;2023-11-19T11:03:50;9.15;;;6.20;;
61336;SDS011;47212;41.326;2.104;2023-11-19T11:08:57;9.13;;;6.22;;
61336;SDS011;47212;41.326;2.104;2023-11-19T11:14:00;10.67;;;6.73;;
61336;SDS011;47212;41.326;2.104;2023-11-19T11:19:10;9.88;;;6.95;;
61336;SDS011;47212;41.326;2.104;2023-11-19T11:29:57;9.38;;;6.30;;
61336;SDS011;47212;41.326;2.104;2023-11-19T11:40:28;11.50;;;6.50;;
61336;SDS011;47212;41.326;2.104;2023-11-19T11:45:43;9.32;;;6.07;;
61336;SDS011;47212;41.326;2.104;2023-11-19T11:51:04;9.45;;;5.57;;
61336;SDS011;47212;41.326;2.104;2023-11-19T11:56:09;7.07;;;5.53;;
61336;SDS011;47212;41.326;2.104;2023-11-19T12:01:57;8.40;;;5.85;;
61336;SDS011;47212;41.326;2.104;2023-11-19T12:07:04;7.32;;;5.47;;
61336;SDS011;47212;41.326;2.104;2023-11-19T12:12:26;7.65;;;4.82;;
61336;SDS011;47212;41.326;2.104;2023-11-19T12:17:38;6.53;;;4.65;;
61336;SDS011;47212;41.326;2.104;2023-11-19T12:22:53;7.93;;;5.20;;
61336;SDS011;47212;41.326;2.104;2023-11-19T12:27:57;5.55;;;3.72;;
61336;SDS011;47212;41.326;2.104;2023-11-19T12:33:12;5.03;;;3.67;;
61336;SDS011;47212;41.326;2.104;2023-11-19T12:38:28;5.03;;;3.60;;
61336;SDS011;47212;41.326;2.104;2023-11-19T12:43:35;5.85;;;4.32;;
61336;SDS011;47212;41.326;2.104;2023-11-19T12:48:54;6.25;;;4.28;;
61336;SDS011;47212;41.326;2.104;2023-11-19T12:54:02;5.20;;;3.92;;
61336;SDS011;47212;41.326;2.104;2023-11-19T12:59:12;4.97;;;3.55;;
61336;SDS011;47212;41.326;2.104;2023-11-19T13:04:16;5.32;;;4.05;;
61336;SDS011;47212;41.326;2.104;2023-11-19T13:09:27;5.80;;;4.20;;
61336;SDS011;47212;41.326;2.104;2023-11-19T13:14:41;7.32;;;4.18;;
61336;SDS011;47212;41.326;2.104;2023-11-19T13:19:50;7.07;;;4.57;;
61336;SDS011;47212;41.326;2.104;2023-11-19T13:24:57;5.47;;;3.58;;
61336;SDS011;47212;41.326;2.104;2023-11-19T13:30:07;6.38;;;4.25;;
61336;SDS011;47212;41.326;2.104;2023-11-19T13:35:29;6.18;;;3.55;;
61336;SDS011;47212;41.326;2.104;2023-11-19T13:40:35;6.68;;;3.55;;
61336;SDS011;47212;41.326;2.104;2023-11-19T13:45:42;6.05;;;3.80;;
61336;SDS011;47212;41.326;2.104;2023-11-19T13:50:47;5.80;;;4.10;;
61336;SDS011;47212;41.326;2.104;2023-11-19T13:55:49;6.97;;;4.13;;
61336;SDS011;47212;41.326;2.104;2023-11-19T14:00:54;5.20;;;3.45;;
61336;SDS011;47212;41.326;2.104;2023-11-19T14:06:00;5.80;;;3.78;;
61336;SDS011;47212;41.326;2.104;2023-11-19T14:11:05;9.27;;;6.75;;
61336;SDS011;47212;41.326;2.104;2023-11-19T14:16:12;6.43;;;4.80;;
61336;SDS011;47212;41.326;2.104;2023-11-19T14:21:16;6.55;;;4.65;;
61336;SDS011;47212;41.326;2.104;2023-11-19T14:26:32;6.78;;;4.63;;
61336;SDS011;47212;41.326;2.104;2023-11-19T14:31:35;5.85;;;4.03;;
61336;SDS011;47212;41.326;2.104;2023-11-19T14:36:37;8.23;;;5.43;;
61336;SDS011;47212;41.326;2.104;2023-11-19T14:41:42;5.65;;;4.35;;
61336;SDS011;47212;41.326;2.104;2023-11-19T14:46:50;9.68;;;5.30;;
61336;SDS011;47212;41.326;2.104;2023-11-19T14:51:58;8.05;;;5.35;;
61336;SDS011;47212;41.326;2.104;2023-11-19T14:57:18;8.60;;;5.10;;
61336;SDS011;47212;41.326;2.104;2023-11-19T15:02:23;7.72;;;5.85;;
61336;SDS011;47212;41.326;2.104;2023-11-19T15:07:30;7.20;;;6.07;;
61336;SDS011;47212;41.326;2.104;2023-11-19T15:12:38;8.02;;;5.57;;
61336;SDS011;47212;41.326;2.104;2023-11-19T15:17:43;7.78;;;5.57;;
61336;SDS011;47212;41.326;2.104;2023-11-19T15:22:46;7.25;;;5.57;;
61336;SDS011;47212;41.326;2.104;2023-11-19T15:27:53;10.48;;;7.25;;
61336;SDS011;47212;41.326;2.104;2023-11-19T15:32:58;11.30;;;7.55;;
61336;SDS011;47212;41.326;2.104;2023-11-19T15:38:04;7.40;;;6.43;;
61336;SDS011;47212;41.326;2.104;2023-11-19T15:43:13;8.00;;;6.45;;
61336;SDS011;47212;41.326;2.104;2023-11-19T15:48:20;8.80;;;6.53;;
61336;SDS011;47212;41.326;2.104;2023-11-19T15:53:26;6.53;;;5.63;;
61336;SDS011;47212;41.326;2.104;2023-11-19T15:58:33;8.23;;;6.05;;
61336;SDS011;47212;41.326;2.104;2023-11-19T16:03:38;6.65;;;4.55;;
61336;SDS011;47212;41.326;2.104;2023-11-19T16:08:44;8.07;;;5.80;;
61336;SDS011;47212;41.326;2.104;2023-11-19T16:13:47;8.60;;;5.47;;
61336;SDS011;47212;41.326;2.104;2023-11-19T16:18:51;5.53;;;4.65;;
61336;SDS011;47212;41.326;2.104;2023-11-19T16:23:55;8.50;;;6.10;;
61336;SDS011;47212;41.326;2.104;2023-11-19T16:29:05;8.07;;;6.30;;
61336;SDS011;47212;41.326;2.104;2023-11-19T16:34:07;7.43;;;5.55;;
61336;SDS011;47212;41.326;2.104;2023-11-19T16:39:15;8.10;;;6.30;;
61336;SDS011;47212;41.326;2.104;2023-11-19T16:44:17;6.80;;;5.53;;
61336;SDS011;47212;41.326;2.104;2023-11-19T16:49:22;6.50;;;5.78;;
61336;SDS011;47212;41.326;2.104;2023-11-19T16:54:27;9.70;;;7.13;;
61336;SDS011;47212;41.326;2.104;2023-11-19T16:59:30;8.23;;;6.53;;
61336;SDS011;47212;41.326;2.104;2023-11-19T17:04:36;7.45;;;6.00;;
61336;SDS011;47212;41.326;2.104;2023-11-19T17:09:39;13.07;;;9.00;;
61336;SDS011;47212;41.326;2.104;2023-11-19T17:14:43;9.13;;;6.68;;
61336;SDS011;47212;41.326;2.104;2023-11-19T17:19:56;7.78;;;6.32;;
61336;SDS011;47212;41.326;2.104;2023-11-19T17:25:01;8.75;;;7.32;;
61336;SDS011;47212;41.326;2.104;2023-11-19T17:30:09;7.80;;;5.97;;
61336;SDS011;47212;41.326;2.104;2023-11-19T17:35:13;8.65;;;6.05;;
61336;SDS011;47212;41.326;2.104;2023-11-19T17:40:17;7.57;;;5.90;;
61336;SDS011;47212;41.326;2.104;2023-11-19T17:45:34;12.23;;;7.40;;
61336;SDS011;47212;41.326;2.104;2023-11-19T17:50:56;8.85;;;6.85;;
61336;SDS011;47212;41.326;2.104;2023-11-19T17:56:18;6.72;;;5.40;;
61336;SDS011;47212;41.326;2.104;2023-11-19T18:01:26;11.93;;;7.65;;
61336;SDS011;47212;41.326;2.104;2023-11-19T18:06:43;12.35;;;7.15;;
61336;SDS011;47212;41.326;2.104;2023-11-19T18:11:50;7.75;;;6.47;;
61336;SDS011;47212;41.326;2.104;2023-11-19T18:17:07;9.68;;;6.93;;
61336;SDS011;47212;41.326;2.104;2023-11-19T18:22:18;6.22;;;4.53;;
61336;SDS011;47212;41.326;2.104;2023-11-19T18:27:41;8.82;;;6.80;;
61336;SDS011;47212;41.326;2.104;2023-11-19T18:32:45;11.32;;;8.40;;
61336;SDS011;47212;41.326;2.104;2023-11-19T18:37:59;8.38;;;5.55;;
61336;SDS011;47212;41.326;2.104;2023-11-19T18:43:02;8.63;;;5.75;;
61336;SDS011;47212;41.326;2.104;2023-11-19T18:48:18;9.70;;;6.57;;
61336;SDS011;47212;41.326;2.104;2023-11-19T18:53:29;7.75;;;6.60;;
61336;SDS011;47212;41.326;2.104;2023-11-19T18:58:41;10.48;;;6.70;;
61336;SDS011;47212;41.326;2.104;2023-11-19T19:04:06;14.45;;;9.50;;
61336;SDS011;47212;41.326;2.104;2023-11-19T19:09:18;11.68;;;10.05;;
61336;SDS011;47212;41.326;2.104;2023-11-19T19:14:25;11.05;;;9.20;;
61336;SDS011;47212;41.326;2.104;2023-11-19T19:19:30;12.65;;;9.75;;
61336;SDS011;47212;41.326;2.104;2023-11-19T19:24:37;15.93;;;12.80;;
61336;SDS011;47212;41.326;2.104;2023-11-19T19:29:41;11.32;;;9.05;;
61336;SDS011;47212;41.326;2.104;2023-11-19T19:34:49;12.27;;;9.70;;
61336;SDS011;47212;41.326;2.104;2023-11-19T19:39:54;17.27;;;12.05;;
61336;SDS011;47212;41.326;2.104;2023-11-19T19:44:56;12.35;;;10.32;;
61336;SDS011;47212;41.326;2.104;2023-11-19T19:50:03;15.20;;;11.00;;
61336;SDS011;47212;41.326;2.104;2023-11-19T19:55:11;15.38;;;10.40;;
61336;SDS011;47212;41.326;2.104;2023-11-19T20:00:16;15.55;;;12.68;;
61336;SDS011;47212;41.326;2.104;2023-11-19T20:05:29;15.40;;;9.60;;
61336;SDS011;47212;41.326;2.104;2023-11-19T20:10:32;11.05;;;9.75;;
61336;SDS011;47212;41.326;2.104;2023-11-19T20:15:36;14.35;;;11.38;;
61336;SDS011;47212;41.326;2.104;2023-11-19T20:21:13;13.73;;;11.65;;
61336;SDS011;47212;41.326;2.104;2023-11-19T20:26:29;16.00;;;12.75;;
61336;SDS011;47212;41.326;2.104;2023-11-19T20:31:57;15.13;;;11.98;;
61336;SDS011;47212;41.326;2.104;2023-11-19T20:37:06;18.98;;;13.70;;
61336;SDS011;47212;41.326;2.104;2023-11-19T20:42:23;16.98;;;14.02;;
61336;SDS011;47212;41.326;2.104;2023-11-19T20:47:40;16.05;;;13.75;;
61336;SDS011;47212;41.326;2.104;2023-11-19T20:52:57;16.17;;;12.93;;
61336;SDS011;47212;41.326;2.104;2023-11-19T20:58:17;17.63;;;14.40;;
61336;SDS011;47212;41.326;2.104;2023-11-19T21:03:26;17.15;;;14.27;;
61336;SDS011;47212;41.326;2.104;2023-11-19T21:08:40;19.90;;;16.00;;
61336;SDS011;47212;41.326;2.104;2023-11-19T21:13:44;23.52;;;18.23;;
61336;SDS011;47212;41.326;2.104;2023-11-19T21:18:46;27.48;;;19.67;;
61336;SDS011;47212;41.326;2.104;2023-11-19T21:23:50;25.15;;;19.70;;
61336;SDS011;47212;41.326;2.104;2023-11-19T21:28:55;34.30;;;22.45;;
61336;SDS011;47212;41.326;2.104;2023-11-19T21:34:06;32.40;;;23.50;;
61336;SDS011;47212;41.326;2.104;2023-11-19T21:39:12;26.20;;;20.38;;
61336;SDS011;47212;41.326;2.104;2023-11-19T21:44:23;31.92;;;22.65;;
61336;SDS011;47212;41.326;2.104;2023-11-19T21:49:37;31.85;;;22.00;;
61336;SDS011;47212;41.326;2.104;2023-11-19T22:04:53;26.70;;;17.88;;
61336;SDS011;47212;41.326;2.104;2023-11-19T22:10:10;32.42;;;21.20;;
61336;SDS011;47212;41.326;2.104;2023-11-19T22:15:31;32.40;;;19.88;;
61336;SDS011;47212;41.326;2.104;2023-11-19T22:21:08;32.70;;;21.10;;
61336;SDS011;47212;41.326;2.104;2023-11-19T22:26:17;34.13;;;21.30;;
61336;SDS011;47212;41.326;2.104;2023-11-19T22:31:46;35.83;;;20.60;;
61336;SDS011;47212;41.326;2.104;2023-11-19T22:36:54;34.03;;;21.17;;
61336;SDS011;47212;41.326;2.104;2023-11-19T22:42:01;36.20;;;20.35;;
61336;SDS011;47212;41.326;2.104;2023-11-19T22:47:07;36.67;;;21.48;;
61336;SDS011;47212;41.326;2.104;2023-11-19T22:52:15;35.72;;;22.48;;
61336;SDS011;47212;41.326;2.104;2023-11-19T22:57:24;36.35;;;21.92;;
61336;SDS011;47212;41.326;2.104;2023-11-19T23:02:50;36.78;;;22.60;;
61336;SDS011;47212;41.326;2.104;2023-11-19T23:08:15;39.72;;;22.35;;
61336;SDS011;47212;41.326;2.104;2023-11-19T23:13:37;42.35;;;23.98;;
61336;SDS011;47212;41.326;2.104;2023-11-19T23:18:59;51.85;;;25.55;;
61336;SDS011;47212;41.326;2.104;2023-11-19T23:24:31;50.58;;;26.30;;
61336;SDS011;47212;41.326;2.104;2023-11-19T23:29:36;51.45;;;25.67;;
61336;SDS011;47212;41.326;2.104;2023-11-19T23:34:44;54.47;;;26.52;;
61336;SDS011;47212;41.326;2.104;2023-11-19T23:45:08;38.78;;;21.35;;
61336;SDS011;47212;41.326;2.104;2023-11-19T23:50:36;48.03;;;23.45;;
61336;SDS011;47212;41.326;2.104;2023-11-19T23:56:13;48.15;;;25.15;;
